Weather at Livermore Municipal Airport

Public forecast

Using degrees Fahrenheit for public forecast. Weather courtesy of forecast.io.

Current aviation weather report (METAR) for Livermore Municipal Airport

Retrieved 2021/12/09 07:53 UTC (13 minutes ago):

KLVK 090753Z AUTO 00000KT 10SM BKN016 BKN022 OVC027 11/10 A2994 RMK AO2 RAE0658 SLP139 P0000 T01060100 401280056

Aviation forecast (TAF) for Livermore Municipal Airport

Retrieved 2021/12/09 06:40 UTC (1 hour ago):

TAF KLVK 090538Z 0906/1006 25005KT 6SM BR VCSH BKN030 OVC050 FM091000 24011G20KT 6SM BR VCSH SCT030 BKN050 FM091400 29006KT P6SM FEW035 SCT050 FM092100 29010KT P6SM FEW050 FM100300 29008KT P6SM SKC